sensor_id;sensor_type;location;lat;lon;timestamp;temperature;humidity
15947;DHT22;8072;52.554;7.966;2022-12-05T00:00:20;3.20;99.90
15947;DHT22;8072;52.554;7.966;2022-12-05T00:02:45;3.20;99.90
15947;DHT22;8072;52.554;7.966;2022-12-05T00:05:11;3.20;99.90
15947;DHT22;8072;52.554;7.966;2022-12-05T00:07:38;3.20;99.90
15947;DHT22;8072;52.554;7.966;2022-12-05T00:10:05;3.30;99.90
15947;DHT22;8072;52.554;7.966;2022-12-05T00:12:31;3.20;99.90
15947;DHT22;8072;52.554;7.966;2022-12-05T00:14:57;3.30;99.90
15947;DHT22;8072;52.554;7.966;2022-12-05T00:17:24;3.30;99.90
15947;DHT22;8072;52.554;7.966;2022-12-05T00:19:49;3.30;99.90
15947;DHT22;8072;52.554;7.966;2022-12-05T00:22:15;3.30;99.90
15947;DHT22;8072;52.554;7.966;2022-12-05T00:24:41;3.30;99.90
15947;DHT22;8072;52.554;7.966;2022-12-05T00:27:07;3.30;99.90
15947;DHT22;8072;52.554;7.966;2022-12-05T00:29:33;3.30;99.90
15947;DHT22;8072;52.554;7.966;2022-12-05T00:31:58;3.40;99.90
15947;DHT22;8072;52.554;7.966;2022-12-05T00:34:24;3.30;99.90
15947;DHT22;8072;52.554;7.966;2022-12-05T00:36:50;3.40;99.90
15947;DHT22;8072;52.554;7.966;2022-12-05T00:39:16;3.30;99.90
15947;DHT22;8072;52.554;7.966;2022-12-05T00:41:42;3.40;99.90
15947;DHT22;8072;52.554;7.966;2022-12-05T00:44:10;3.30;99.90
15947;DHT22;8072;52.554;7.966;2022-12-05T00:46:36;3.30;99.90
15947;DHT22;8072;52.554;7.966;2022-12-05T00:49:04;3.40;99.90
15947;DHT22;8072;52.554;7.966;2022-12-05T00:51:33;3.40;99.90
15947;DHT22;8072;52.554;7.966;2022-12-05T00:54:04;3.40;99.90
15947;DHT22;8072;52.554;7.966;2022-12-05T00:56:31;3.40;99.90
15947;DHT22;8072;52.554;7.966;2022-12-05T00:58:58;3.40;99.90
15947;DHT22;8072;52.554;7.966;2022-12-05T01:01:30;3.40;99.90
15947;DHT22;8072;52.554;7.966;2022-12-05T01:03:59;3.40;99.90
15947;DHT22;8072;52.554;7.966;2022-12-05T01:06:26;3.40;99.90
15947;DHT22;8072;52.554;7.966;2022-12-05T01:08:56;3.40;99.90
15947;DHT22;8072;52.554;7.966;2022-12-05T01:11:23;3.40;99.90
15947;DHT22;8072;52.554;7.966;2022-12-05T01:13:49;3.40;99.90
15947;DHT22;8072;52.554;7.966;2022-12-05T01:16:20;3.40;99.90
15947;DHT22;8072;52.554;7.966;2022-12-05T01:18:48;3.40;99.90
15947;DHT22;8072;52.554;7.966;2022-12-05T01:21:14;3.50;99.90
15947;DHT22;8072;52.554;7.966;2022-12-05T01:23:40;3.40;99.90
15947;DHT22;8072;52.554;7.966;2022-12-05T01:26:08;3.50;99.90
15947;DHT22;8072;52.554;7.966;2022-12-05T01:28:35;3.50;99.90
15947;DHT22;8072;52.554;7.966;2022-12-05T01:31:11;3.40;99.90
15947;DHT22;8072;52.554;7.966;2022-12-05T01:33:40;3.40;99.90
15947;DHT22;8072;52.554;7.966;2022-12-05T01:36:10;3.50;99.90
15947;DHT22;8072;52.554;7.966;2022-12-05T01:38:40;3.40;99.90
15947;DHT22;8072;52.554;7.966;2022-12-05T01:41:08;3.40;99.90
15947;DHT22;8072;52.554;7.966;2022-12-05T01:44:07;3.40;99.90
15947;DHT22;8072;52.554;7.966;2022-12-05T01:46:52;3.40;99.90
15947;DHT22;8072;52.554;7.966;2022-12-05T01:51:46;3.40;99.90
15947;DHT22;8072;52.554;7.966;2022-12-05T01:54:14;3.50;99.90
15947;DHT22;8072;52.554;7.966;2022-12-05T01:56:43;3.40;99.90
15947;DHT22;8072;52.554;7.966;2022-12-05T01:59:10;3.50;99.90
15947;DHT22;8072;52.554;7.966;2022-12-05T02:01:37;3.50;99.90
15947;DHT22;8072;52.554;7.966;2022-12-05T02:04:05;3.50;99.90
15947;DHT22;8072;52.554;7.966;2022-12-05T02:06:31;3.50;99.90
15947;DHT22;8072;52.554;7.966;2022-12-05T02:08:57;3.50;99.90
15947;DHT22;8072;52.554;7.966;2022-12-05T02:11:27;3.50;99.90
15947;DHT22;8072;52.554;7.966;2022-12-05T02:31:35;3.50;99.90
15947;DHT22;8072;52.554;7.966;2022-12-05T02:34:13;3.50;99.90
15947;DHT22;8072;52.554;7.966;2022-12-05T02:36:55;3.50;99.90
15947;DHT22;8072;52.554;7.966;2022-12-05T02:42:20;3.50;99.90
15947;DHT22;8072;52.554;7.966;2022-12-05T02:44:55;3.50;99.90
15947;DHT22;8072;52.554;7.966;2022-12-05T02:47:25;3.50;99.90
15947;DHT22;8072;52.554;7.966;2022-12-05T02:49:52;3.50;99.90
15947;DHT22;8072;52.554;7.966;2022-12-05T02:52:19;3.50;99.90
15947;DHT22;8072;52.554;7.966;2022-12-05T02:54:48;3.50;99.90
15947;DHT22;8072;52.554;7.966;2022-12-05T02:57:15;3.40;99.90
15947;DHT22;8072;52.554;7.966;2022-12-05T02:59:42;3.40;99.90
15947;DHT22;8072;52.554;7.966;2022-12-05T03:02:29;3.40;99.90
15947;DHT22;8072;52.554;7.966;2022-12-05T03:05:01;3.40;99.90
15947;DHT22;8072;52.554;7.966;2022-12-05T03:07:30;3.40;99.90
15947;DHT22;8072;52.554;7.966;2022-12-05T03:10:02;3.30;99.90
15947;DHT22;8072;52.554;7.966;2022-12-05T03:12:32;3.40;99.90
15947;DHT22;8072;52.554;7.966;2022-12-05T03:15:03;3.30;99.90
15947;DHT22;8072;52.554;7.966;2022-12-05T03:17:46;3.30;99.90
15947;DHT22;8072;52.554;7.966;2022-12-05T03:20:55;3.40;99.90
15947;DHT22;8072;52.554;7.966;2022-12-05T03:23:40;3.40;99.90
15947;DHT22;8072;52.554;7.966;2022-12-05T03:26:20;3.30;99.90
15947;DHT22;8072;52.554;7.966;2022-12-05T03:34:54;3.30;99.90
15947;DHT22;8072;52.554;7.966;2022-12-05T03:43:33;3.30;99.90
15947;DHT22;8072;52.554;7.966;2022-12-05T03:48:31;3.30;99.90
15947;DHT22;8072;52.554;7.966;2022-12-05T03:51:01;3.30;99.90
15947;DHT22;8072;52.554;7.966;2022-12-05T03:53:40;3.30;99.90
15947;DHT22;8072;52.554;7.966;2022-12-05T03:56:40;3.30;99.90
15947;DHT22;8072;52.554;7.966;2022-12-05T04:01:45;3.30;99.90
15947;DHT22;8072;52.554;7.966;2022-12-05T04:04:20;3.30;99.90
15947;DHT22;8072;52.554;7.966;2022-12-05T04:06:51;3.30;99.90
15947;DHT22;8072;52.554;7.966;2022-12-05T04:09:25;3.30;99.90
15947;DHT22;8072;52.554;7.966;2022-12-05T04:11:58;3.30;99.90
15947;DHT22;8072;52.554;7.966;2022-12-05T04:14:38;3.30;99.90
15947;DHT22;8072;52.554;7.966;2022-12-05T04:17:11;3.30;99.90
15947;DHT22;8072;52.554;7.966;2022-12-05T04:19:52;3.30;99.90
15947;DHT22;8072;52.554;7.966;2022-12-05T04:22:38;3.30;99.90
15947;DHT22;8072;52.554;7.966;2022-12-05T04:25:07;3.30;99.90
15947;DHT22;8072;52.554;7.966;2022-12-05T04:31:02;3.30;99.90
15947;DHT22;8072;52.554;7.966;2022-12-05T04:33:48;3.30;99.90
15947;DHT22;8072;52.554;7.966;2022-12-05T04:36:18;3.30;99.90
15947;DHT22;8072;52.554;7.966;2022-12-05T04:38:54;3.30;99.90
15947;DHT22;8072;52.554;7.966;2022-12-05T04:41:27;3.30;99.90
15947;DHT22;8072;52.554;7.966;2022-12-05T04:43:55;3.30;99.90
15947;DHT22;8072;52.554;7.966;2022-12-05T04:46:23;3.30;99.90
15947;DHT22;8072;52.554;7.966;2022-12-05T04:48:56;3.30;99.90
15947;DHT22;8072;52.554;7.966;2022-12-05T04:51:26;3.30;99.90
15947;DHT22;8072;52.554;7.966;2022-12-05T04:53:57;3.30;99.90
15947;DHT22;8072;52.554;7.966;2022-12-05T04:56:29;3.30;99.90
15947;DHT22;8072;52.554;7.966;2022-12-05T04:58:56;3.30;99.90
15947;DHT22;8072;52.554;7.966;2022-12-05T05:04:37;3.30;99.90
15947;DHT22;8072;52.554;7.966;2022-12-05T05:07:10;3.30;99.90
15947;DHT22;8072;52.554;7.966;2022-12-05T05:09:38;3.30;99.90
15947;DHT22;8072;52.554;7.966;2022-12-05T05:12:05;3.30;99.90
15947;DHT22;8072;52.554;7.966;2022-12-05T05:14:32;3.30;99.90
15947;DHT22;8072;52.554;7.966;2022-12-05T05:16:57;3.30;99.90
15947;DHT22;8072;52.554;7.966;2022-12-05T05:19:23;3.40;99.90
15947;DHT22;8072;52.554;7.966;2022-12-05T05:21:50;3.30;99.90
15947;DHT22;8072;52.554;7.966;2022-12-05T05:24:17;3.30;99.90
15947;DHT22;8072;52.554;7.966;2022-12-05T05:26:44;3.30;99.90
15947;DHT22;8072;52.554;7.966;2022-12-05T05:29:11;3.30;99.90
15947;DHT22;8072;52.554;7.966;2022-12-05T05:31:38;3.30;99.90
15947;DHT22;8072;52.554;7.966;2022-12-05T05:34:05;3.30;99.90
15947;DHT22;8072;52.554;7.966;2022-12-05T05:36:31;3.30;99.90
15947;DHT22;8072;52.554;7.966;2022-12-05T05:38:59;3.30;99.90
15947;DHT22;8072;52.554;7.966;2022-12-05T05:41:30;3.40;99.90
15947;DHT22;8072;52.554;7.966;2022-12-05T05:43:57;3.40;99.90
15947;DHT22;8072;52.554;7.966;2022-12-05T05:46:26;3.40;99.90
15947;DHT22;8072;52.554;7.966;2022-12-05T05:48:52;3.40;99.90
15947;DHT22;8072;52.554;7.966;2022-12-05T05:51:19;3.40;99.90
15947;DHT22;8072;52.554;7.966;2022-12-05T05:53:46;3.40;99.90
15947;DHT22;8072;52.554;7.966;2022-12-05T05:56:15;3.40;99.90
15947;DHT22;8072;52.554;7.966;2022-12-05T05:58:41;3.40;99.90
15947;DHT22;8072;52.554;7.966;2022-12-05T06:01:14;3.40;99.90
15947;DHT22;8072;52.554;7.966;2022-12-05T06:03:40;3.40;99.90
15947;DHT22;8072;52.554;7.966;2022-12-05T06:06:09;3.40;99.90
15947;DHT22;8072;52.554;7.966;2022-12-05T06:08:37;3.40;99.90
15947;DHT22;8072;52.554;7.966;2022-12-05T06:11:05;3.30;99.90
15947;DHT22;8072;52.554;7.966;2022-12-05T06:13:31;3.40;99.90
15947;DHT22;8072;52.554;7.966;2022-12-05T06:15:57;3.40;99.90
15947;DHT22;8072;52.554;7.966;2022-12-05T06:18:23;3.40;99.90
15947;DHT22;8072;52.554;7.966;2022-12-05T06:20:53;3.40;99.90
15947;DHT22;8072;52.554;7.966;2022-12-05T06:23:19;3.40;99.90
15947;DHT22;8072;52.554;7.966;2022-12-05T06:25:49;3.40;99.90
15947;DHT22;8072;52.554;7.966;2022-12-05T06:28:16;3.40;99.90
15947;DHT22;8072;52.554;7.966;2022-12-05T06:30:45;3.40;99.90
15947;DHT22;8072;52.554;7.966;2022-12-05T06:33:12;3.40;99.90
15947;DHT22;8072;52.554;7.966;2022-12-05T06:35:37;3.50;99.90
15947;DHT22;8072;52.554;7.966;2022-12-05T06:38:05;3.50;99.90
15947;DHT22;8072;52.554;7.966;2022-12-05T06:40:31;3.50;99.90
15947;DHT22;8072;52.554;7.966;2022-12-05T06:42:57;3.50;99.90
15947;DHT22;8072;52.554;7.966;2022-12-05T06:45:23;3.50;99.90
15947;DHT22;8072;52.554;7.966;2022-12-05T06:47:50;3.50;99.90
15947;DHT22;8072;52.554;7.966;2022-12-05T06:50:17;3.50;99.90
15947;DHT22;8072;52.554;7.966;2022-12-05T06:52:43;3.50;99.90
15947;DHT22;8072;52.554;7.966;2022-12-05T06:55:09;3.60;99.90
15947;DHT22;8072;52.554;7.966;2022-12-05T06:57:35;3.60;99.90
15947;DHT22;8072;52.554;7.966;2022-12-05T07:00:01;3.60;99.90
15947;DHT22;8072;52.554;7.966;2022-12-05T07:02:45;3.60;99.90
15947;DHT22;8072;52.554;7.966;2022-12-05T07:05:11;3.60;99.90
15947;DHT22;8072;52.554;7.966;2022-12-05T07:07:37;3.50;99.90
15947;DHT22;8072;52.554;7.966;2022-12-05T07:10:04;3.60;99.90
15947;DHT22;8072;52.554;7.966;2022-12-05T07:12:31;3.50;99.90
15947;DHT22;8072;52.554;7.966;2022-12-05T07:14:58;3.60;99.90
15947;DHT22;8072;52.554;7.966;2022-12-05T07:17:23;3.50;99.90
15947;DHT22;8072;52.554;7.966;2022-12-05T07:19:50;3.60;99.90
15947;DHT22;8072;52.554;7.966;2022-12-05T07:22:18;3.50;99.90
15947;DHT22;8072;52.554;7.966;2022-12-05T07:24:44;3.60;99.90
15947;DHT22;8072;52.554;7.966;2022-12-05T07:27:11;3.60;99.90
15947;DHT22;8072;52.554;7.966;2022-12-05T07:29:37;3.60;99.90
15947;DHT22;8072;52.554;7.966;2022-12-05T07:32:04;3.60;99.90
15947;DHT22;8072;52.554;7.966;2022-12-05T07:34:30;3.60;99.90
15947;DHT22;8072;52.554;7.966;2022-12-05T07:36:56;3.60;99.90
15947;DHT22;8072;52.554;7.966;2022-12-05T07:39:22;3.60;99.90
15947;DHT22;8072;52.554;7.966;2022-12-05T07:41:48;3.60;99.90
15947;DHT22;8072;52.554;7.966;2022-12-05T07:44:14;3.60;99.90
15947;DHT22;8072;52.554;7.966;2022-12-05T07:46:40;3.70;99.90
15947;DHT22;8072;52.554;7.966;2022-12-05T07:49:06;3.70;99.90
15947;DHT22;8072;52.554;7.966;2022-12-05T07:51:32;3.70;99.90
15947;DHT22;8072;52.554;7.966;2022-12-05T07:53:59;3.60;99.90
15947;DHT22;8072;52.554;7.966;2022-12-05T07:56:26;3.70;99.90
15947;DHT22;8072;52.554;7.966;2022-12-05T07:58:52;3.70;99.90
15947;DHT22;8072;52.554;7.966;2022-12-05T08:01:20;3.70;99.90
15947;DHT22;8072;52.554;7.966;2022-12-05T08:03:47;3.70;99.90
15947;DHT22;8072;52.554;7.966;2022-12-05T08:06:16;3.70;99.90
15947;DHT22;8072;52.554;7.966;2022-12-05T08:08:42;3.70;99.90
15947;DHT22;8072;52.554;7.966;2022-12-05T08:11:14;3.70;99.90
15947;DHT22;8072;52.554;7.966;2022-12-05T08:13:41;3.70;99.90
15947;DHT22;8072;52.554;7.966;2022-12-05T08:16:10;3.70;99.90
15947;DHT22;8072;52.554;7.966;2022-12-05T08:18:37;3.70;99.90
15947;DHT22;8072;52.554;7.966;2022-12-05T08:21:04;3.70;99.90
15947;DHT22;8072;52.554;7.966;2022-12-05T08:23:31;3.70;99.90
15947;DHT22;8072;52.554;7.966;2022-12-05T08:26:05;3.70;99.90
15947;DHT22;8072;52.554;7.966;2022-12-05T08:28:31;3.80;99.90
15947;DHT22;8072;52.554;7.966;2022-12-05T08:31:12;3.80;99.90
15947;DHT22;8072;52.554;7.966;2022-12-05T08:33:39;3.80;99.90
15947;DHT22;8072;52.554;7.966;2022-12-05T08:36:12;3.80;99.90
15947;DHT22;8072;52.554;7.966;2022-12-05T08:38:38;3.80;99.90
15947;DHT22;8072;52.554;7.966;2022-12-05T08:41:07;3.80;99.90
15947;DHT22;8072;52.554;7.966;2022-12-05T08:43:33;3.80;99.90
15947;DHT22;8072;52.554;7.966;2022-12-05T08:46:00;3.80;99.90
15947;DHT22;8072;52.554;7.966;2022-12-05T08:48:27;3.80;99.90
15947;DHT22;8072;52.554;7.966;2022-12-05T08:50:53;3.80;99.90
15947;DHT22;8072;52.554;7.966;2022-12-05T08:53:19;3.80;99.90
15947;DHT22;8072;52.554;7.966;2022-12-05T08:55:45;3.80;99.90
15947;DHT22;8072;52.554;7.966;2022-12-05T08:58:14;3.80;99.90
15947;DHT22;8072;52.554;7.966;2022-12-05T09:00:42;3.90;99.90
15947;DHT22;8072;52.554;7.966;2022-12-05T09:03:11;3.90;99.90
15947;DHT22;8072;52.554;7.966;2022-12-05T09:05:37;3.90;99.90
15947;DHT22;8072;52.554;7.966;2022-12-05T09:08:03;3.90;99.90
15947;DHT22;8072;52.554;7.966;2022-12-05T09:10:29;3.90;99.90
15947;DHT22;8072;52.554;7.966;2022-12-05T09:15:58;3.90;99.90
15947;DHT22;8072;52.554;7.966;2022-12-05T09:18:23;3.90;99.90
15947;DHT22;8072;52.554;7.966;2022-12-05T09:20:49;3.90;99.90
15947;DHT22;8072;52.554;7.966;2022-12-05T09:23:15;3.90;99.90
15947;DHT22;8072;52.554;7.966;2022-12-05T09:25:53;3.90;99.90
15947;DHT22;8072;52.554;7.966;2022-12-05T09:28:23;3.90;99.90
15947;DHT22;8072;52.554;7.966;2022-12-05T09:31:01;3.90;99.90
15947;DHT22;8072;52.554;7.966;2022-12-05T09:33:37;4.00;99.90
15947;DHT22;8072;52.554;7.966;2022-12-05T09:36:10;3.90;99.90
15947;DHT22;8072;52.554;7.966;2022-12-05T09:38:39;4.00;99.90
15947;DHT22;8072;52.554;7.966;2022-12-05T09:52:42;4.00;99.90
15947;DHT22;8072;52.554;7.966;2022-12-05T09:55:14;4.00;99.90
15947;DHT22;8072;52.554;7.966;2022-12-05T09:57:53;4.00;99.90
15947;DHT22;8072;52.554;7.966;2022-12-05T10:00:20;4.00;99.90
15947;DHT22;8072;52.554;7.966;2022-12-05T10:05:53;4.00;99.90
15947;DHT22;8072;52.554;7.966;2022-12-05T10:08:37;4.00;99.90
15947;DHT22;8072;52.554;7.966;2022-12-05T10:11:31;4.00;99.90
15947;DHT22;8072;52.554;7.966;2022-12-05T10:16:55;4.00;99.90
15947;DHT22;8072;52.554;7.966;2022-12-05T10:19:37;4.00;99.90
15947;DHT22;8072;52.554;7.966;2022-12-05T10:24:43;4.00;99.90
15947;DHT22;8072;52.554;7.966;2022-12-05T10:27:18;4.00;99.90
15947;DHT22;8072;52.554;7.966;2022-12-05T10:32:21;4.00;99.90
15947;DHT22;8072;52.554;7.966;2022-12-05T10:34:49;4.00;99.90
15947;DHT22;8072;52.554;7.966;2022-12-05T10:37:19;4.00;99.90
15947;DHT22;8072;52.554;7.966;2022-12-05T10:39:47;4.00;99.90
15947;DHT22;8072;52.554;7.966;2022-12-05T10:42:16;4.00;99.90
15947;DHT22;8072;52.554;7.966;2022-12-05T10:44:44;4.00;99.90
15947;DHT22;8072;52.554;7.966;2022-12-05T10:47:10;4.00;99.90
15947;DHT22;8072;52.554;7.966;2022-12-05T10:49:37;4.00;99.90
15947;DHT22;8072;52.554;7.966;2022-12-05T10:52:04;4.00;99.90
15947;DHT22;8072;52.554;7.966;2022-12-05T10:54:34;3.90;99.90
15947;DHT22;8072;52.554;7.966;2022-12-05T10:57:01;3.90;99.90
15947;DHT22;8072;52.554;7.966;2022-12-05T10:59:46;3.90;99.90
15947;DHT22;8072;52.554;7.966;2022-12-05T11:02:29;3.90;99.90
15947;DHT22;8072;52.554;7.966;2022-12-05T11:04:56;3.90;99.90
15947;DHT22;8072;52.554;7.966;2022-12-05T11:10:35;3.90;99.90
15947;DHT22;8072;52.554;7.966;2022-12-05T11:13:21;3.90;99.90
15947;DHT22;8072;52.554;7.966;2022-12-05T11:15:48;3.90;99.90
15947;DHT22;8072;52.554;7.966;2022-12-05T11:18:30;3.80;99.90
15947;DHT22;8072;52.554;7.966;2022-12-05T11:21:11;3.80;99.90
15947;DHT22;8072;52.554;7.966;2022-12-05T11:23:37;3.70;99.90
15947;DHT22;8072;52.554;7.966;2022-12-05T11:26:04;3.70;99.90
15947;DHT22;8072;52.554;7.966;2022-12-05T11:28:39;3.60;99.90
15947;DHT22;8072;52.554;7.966;2022-12-05T11:33:36;3.60;99.90
15947;DHT22;8072;52.554;7.966;2022-12-05T11:36:17;3.60;99.90
15947;DHT22;8072;52.554;7.966;2022-12-05T11:38:44;3.50;99.90
15947;DHT22;8072;52.554;7.966;2022-12-05T12:11:57;3.50;99.90
15947;DHT22;8072;52.554;7.966;2022-12-05T12:14:49;3.40;99.90
15947;DHT22;8072;52.554;7.966;2022-12-05T12:17:41;3.40;99.90
15947;DHT22;8072;52.554;7.966;2022-12-05T12:20:29;3.40;99.90
15947;DHT22;8072;52.554;7.966;2022-12-05T12:25:57;3.40;99.90
15947;DHT22;8072;52.554;7.966;2022-12-05T12:34:37;3.40;99.90
15947;DHT22;8072;52.554;7.966;2022-12-05T12:50:44;3.50;99.90
15947;DHT22;8072;52.554;7.966;2022-12-05T12:56:17;3.50;99.90
15947;DHT22;8072;52.554;7.966;2022-12-05T13:04:08;3.40;99.90
15947;DHT22;8072;52.554;7.966;2022-12-05T13:06:44;3.40;99.90
15947;DHT22;8072;52.554;7.966;2022-12-05T13:09:33;3.40;99.90
15947;DHT22;8072;52.554;7.966;2022-12-05T13:12:27;3.30;99.90
15947;DHT22;8072;52.554;7.966;2022-12-05T13:15:09;3.30;99.90
15947;DHT22;8072;52.554;7.966;2022-12-05T13:17:39;3.30;99.90
15947;DHT22;8072;52.554;7.966;2022-12-05T13:20:09;3.30;99.90
15947;DHT22;8072;52.554;7.966;2022-12-05T13:22:38;3.30;99.90
15947;DHT22;8072;52.554;7.966;2022-12-05T13:25:04;3.20;99.90
15947;DHT22;8072;52.554;7.966;2022-12-05T13:27:30;3.20;99.90
15947;DHT22;8072;52.554;7.966;2022-12-05T13:29:58;3.20;99.90
15947;DHT22;8072;52.554;7.966;2022-12-05T13:32:37;3.20;99.90
15947;DHT22;8072;52.554;7.966;2022-12-05T13:35:23;3.10;99.90
15947;DHT22;8072;52.554;7.966;2022-12-05T13:38:34;3.20;99.90
15947;DHT22;8072;52.554;7.966;2022-12-05T13:41:20;3.10;99.90
15947;DHT22;8072;52.554;7.966;2022-12-05T13:44:05;3.10;99.90
15947;DHT22;8072;52.554;7.966;2022-12-05T13:46:41;3.10;99.90
15947;DHT22;8072;52.554;7.966;2022-12-05T13:49:15;3.10;99.90
15947;DHT22;8072;52.554;7.966;2022-12-05T13:51:43;3.10;99.90
15947;DHT22;8072;52.554;7.966;2022-12-05T13:54:21;3.10;99.90
15947;DHT22;8072;52.554;7.966;2022-12-05T13:56:58;3.10;99.90
15947;DHT22;8072;52.554;7.966;2022-12-05T14:07:53;3.10;99.90
15947;DHT22;8072;52.554;7.966;2022-12-05T14:12:59;3.10;99.90
15947;DHT22;8072;52.554;7.966;2022-12-05T14:21:03;3.10;99.90
15947;DHT22;8072;52.554;7.966;2022-12-05T14:29:07;3.00;99.90
15947;DHT22;8072;52.554;7.966;2022-12-05T14:32:15;3.00;99.90
15947;DHT22;8072;52.554;7.966;2022-12-05T14:35:18;3.00;99.90
15947;DHT22;8072;52.554;7.966;2022-12-05T14:38:01;3.00;99.90
15947;DHT22;8072;52.554;7.966;2022-12-05T14:40:39;3.00;99.90
15947;DHT22;8072;52.554;7.966;2022-12-05T14:43:14;3.00;99.90
15947;DHT22;8072;52.554;7.966;2022-12-05T14:46:02;3.00;99.90
15947;DHT22;8072;52.554;7.966;2022-12-05T14:48:35;3.00;99.90
15947;DHT22;8072;52.554;7.966;2022-12-05T14:54:17;2.90;99.90
15947;DHT22;8072;52.554;7.966;2022-12-05T14:56:45;2.90;99.90
15947;DHT22;8072;52.554;7.966;2022-12-05T14:59:28;2.90;99.90
15947;DHT22;8072;52.554;7.966;2022-12-05T15:01:59;2.90;99.90
15947;DHT22;8072;52.554;7.966;2022-12-05T15:04:39;2.90;99.90
15947;DHT22;8072;52.554;7.966;2022-12-05T15:07:17;2.90;99.90
15947;DHT22;8072;52.554;7.966;2022-12-05T15:12:48;2.90;99.90
15947;DHT22;8072;52.554;7.966;2022-12-05T15:15:35;2.90;99.90
15947;DHT22;8072;52.554;7.966;2022-12-05T15:18:23;2.90;99.90
15947;DHT22;8072;52.554;7.966;2022-12-05T15:23:46;2.90;99.90
15947;DHT22;8072;52.554;7.966;2022-12-05T15:26:39;2.90;99.90
15947;DHT22;8072;52.554;7.966;2022-12-05T15:29:06;2.80;99.90
15947;DHT22;8072;52.554;7.966;2022-12-05T15:31:36;2.80;99.90
15947;DHT22;8072;52.554;7.966;2022-12-05T15:34:10;2.80;99.90
15947;DHT22;8072;52.554;7.966;2022-12-05T15:36:42;2.80;99.90
15947;DHT22;8072;52.554;7.966;2022-12-05T15:39:23;2.80;99.90
15947;DHT22;8072;52.554;7.966;2022-12-05T15:41:54;2.80;99.90
15947;DHT22;8072;52.554;7.966;2022-12-05T15:44:21;2.80;99.90
15947;DHT22;8072;52.554;7.966;2022-12-05T15:46:52;2.80;99.90
15947;DHT22;8072;52.554;7.966;2022-12-05T15:49:24;2.80;99.90
15947;DHT22;8072;52.554;7.966;2022-12-05T15:55:06;2.80;99.90
15947;DHT22;8072;52.554;7.966;2022-12-05T15:57:41;2.80;99.90
15947;DHT22;8072;52.554;7.966;2022-12-05T16:00:17;2.90;99.90
15947;DHT22;8072;52.554;7.966;2022-12-05T16:05:38;2.90;99.90
15947;DHT22;8072;52.554;7.966;2022-12-05T16:08:05;2.90;99.90
15947;DHT22;8072;52.554;7.966;2022-12-05T16:10:31;2.90;99.90
15947;DHT22;8072;52.554;7.966;2022-12-05T16:13:06;2.90;99.90
15947;DHT22;8072;52.554;7.966;2022-12-05T16:15:33;2.90;99.90
15947;DHT22;8072;52.554;7.966;2022-12-05T16:18:00;2.80;99.90
15947;DHT22;8072;52.554;7.966;2022-12-05T16:20:32;2.80;99.90
15947;DHT22;8072;52.554;7.966;2022-12-05T16:23:21;2.80;99.90
15947;DHT22;8072;52.554;7.966;2022-12-05T16:25:48;2.80;99.90
15947;DHT22;8072;52.554;7.966;2022-12-05T16:28:19;2.80;99.90
15947;DHT22;8072;52.554;7.966;2022-12-05T16:31:00;2.80;99.90
15947;DHT22;8072;52.554;7.966;2022-12-05T16:33:28;2.80;99.90
15947;DHT22;8072;52.554;7.966;2022-12-05T16:35:54;2.80;99.90
15947;DHT22;8072;52.554;7.966;2022-12-05T16:38:28;2.80;99.90
15947;DHT22;8072;52.554;7.966;2022-12-05T16:41:00;2.80;99.90
15947;DHT22;8072;52.554;7.966;2022-12-05T16:45:58;2.80;99.90
15947;DHT22;8072;52.554;7.966;2022-12-05T16:48:29;2.80;99.90
15947;DHT22;8072;52.554;7.966;2022-12-05T16:53:48;2.90;99.90
15947;DHT22;8072;52.554;7.966;2022-12-05T16:56:28;2.90;99.90
15947;DHT22;8072;52.554;7.966;2022-12-05T16:58:54;2.90;99.90
15947;DHT22;8072;52.554;7.966;2022-12-05T17:01:23;2.90;99.90
15947;DHT22;8072;52.554;7.966;2022-12-05T17:03:50;2.90;99.90
15947;DHT22;8072;52.554;7.966;2022-12-05T17:06:17;2.90;99.90
15947;DHT22;8072;52.554;7.966;2022-12-05T17:08:42;2.90;99.90
15947;DHT22;8072;52.554;7.966;2022-12-05T17:11:23;2.80;99.90
15947;DHT22;8072;52.554;7.966;2022-12-05T17:13:50;2.80;99.90
15947;DHT22;8072;52.554;7.966;2022-12-05T17:16:17;2.80;99.90
15947;DHT22;8072;52.554;7.966;2022-12-05T17:18:43;2.80;99.90
15947;DHT22;8072;52.554;7.966;2022-12-05T17:21:14;2.80;99.90
15947;DHT22;8072;52.554;7.966;2022-12-05T17:23:40;2.80;99.90
15947;DHT22;8072;52.554;7.966;2022-12-05T17:26:08;2.80;99.90
15947;DHT22;8072;52.554;7.966;2022-12-05T17:28:36;2.80;99.90
15947;DHT22;8072;52.554;7.966;2022-12-05T17:31:03;2.80;99.90
15947;DHT22;8072;52.554;7.966;2022-12-05T17:33:29;2.80;99.90
15947;DHT22;8072;52.554;7.966;2022-12-05T17:35:56;2.80;99.90
15947;DHT22;8072;52.554;7.966;2022-12-05T17:38:22;2.80;99.90
15947;DHT22;8072;52.554;7.966;2022-12-05T17:40:48;2.80;99.90
15947;DHT22;8072;52.554;7.966;2022-12-05T17:43:14;2.80;99.90
15947;DHT22;8072;52.554;7.966;2022-12-05T17:45:43;2.80;99.90
15947;DHT22;8072;52.554;7.966;2022-12-05T17:48:11;2.80;99.90
15947;DHT22;8072;52.554;7.966;2022-12-05T17:50:39;2.70;99.90
15947;DHT22;8072;52.554;7.966;2022-12-05T17:53:05;2.70;99.90
15947;DHT22;8072;52.554;7.966;2022-12-05T17:55:31;2.70;99.90
15947;DHT22;8072;52.554;7.966;2022-12-05T17:57:56;2.70;99.90
15947;DHT22;8072;52.554;7.966;2022-12-05T18:00:23;2.70;99.90
15947;DHT22;8072;52.554;7.966;2022-12-05T18:02:50;2.70;99.90
15947;DHT22;8072;52.554;7.966;2022-12-05T18:05:17;2.70;99.90
15947;DHT22;8072;52.554;7.966;2022-12-05T18:07:44;2.70;99.90
15947;DHT22;8072;52.554;7.966;2022-12-05T18:10:14;2.60;99.90
15947;DHT22;8072;52.554;7.966;2022-12-05T18:12:42;2.60;99.90
15947;DHT22;8072;52.554;7.966;2022-12-05T18:15:09;2.70;99.90
15947;DHT22;8072;52.554;7.966;2022-12-05T18:17:35;2.60;99.90
15947;DHT22;8072;52.554;7.966;2022-12-05T18:20:01;2.60;99.90
15947;DHT22;8072;52.554;7.966;2022-12-05T18:22:28;2.60;99.90
15947;DHT22;8072;52.554;7.966;2022-12-05T18:24:54;2.60;99.90
15947;DHT22;8072;52.554;7.966;2022-12-05T18:27:23;2.60;99.90
15947;DHT22;8072;52.554;7.966;2022-12-05T18:29:49;2.60;99.90
15947;DHT22;8072;52.554;7.966;2022-12-05T18:32:18;2.60;99.90
15947;DHT22;8072;52.554;7.966;2022-12-05T18:34:44;2.60;99.90
15947;DHT22;8072;52.554;7.966;2022-12-05T18:37:10;2.60;99.90
15947;DHT22;8072;52.554;7.966;2022-12-05T18:39:37;2.60;99.90
15947;DHT22;8072;52.554;7.966;2022-12-05T18:42:04;2.60;99.90
15947;DHT22;8072;52.554;7.966;2022-12-05T18:44:30;2.60;99.90
15947;DHT22;8072;52.554;7.966;2022-12-05T18:46:56;2.60;99.90
15947;DHT22;8072;52.554;7.966;2022-12-05T18:49:22;2.50;99.90
15947;DHT22;8072;52.554;7.966;2022-12-05T18:51:48;2.50;99.90
15947;DHT22;8072;52.554;7.966;2022-12-05T18:54:14;2.50;99.90
15947;DHT22;8072;52.554;7.966;2022-12-05T18:56:40;2.50;99.90
15947;DHT22;8072;52.554;7.966;2022-12-05T18:59:35;2.50;99.90
15947;DHT22;8072;52.554;7.966;2022-12-05T19:02:00;2.50;99.90
15947;DHT22;8072;52.554;7.966;2022-12-05T19:04:27;2.50;99.90
15947;DHT22;8072;52.554;7.966;2022-12-05T19:06:58;2.50;99.90
15947;DHT22;8072;52.554;7.966;2022-12-05T19:09:28;2.40;99.90
15947;DHT22;8072;52.554;7.966;2022-12-05T19:11:55;2.40;99.90
15947;DHT22;8072;52.554;7.966;2022-12-05T19:14:26;2.40;99.90
15947;DHT22;8072;52.554;7.966;2022-12-05T19:16:54;2.40;99.90
15947;DHT22;8072;52.554;7.966;2022-12-05T19:19:21;2.40;99.90
15947;DHT22;8072;52.554;7.966;2022-12-05T19:21:47;2.40;99.90
15947;DHT22;8072;52.554;7.966;2022-12-05T19:24:15;2.40;99.90
15947;DHT22;8072;52.554;7.966;2022-12-05T19:26:42;2.30;99.90